Wilkinson, Indiana
Current Conditions -  °F | °C
As of 2:15 PM on Monday 20 Oct 2014 (Local Time) from KMQJ Reporting Station
Broken Clouds Broken Clouds  
Wind Chill: 61°   Ceiling: 2600
Heat Index: 61°   Visibility: 10mi
Dew Point: 46°   Wind: 13mph
Humidity: 59%   Direction: 250°WSW
Pressure: 29.86"   Gusts: 22mph
Location:  39.89°N, 85.61°W
Report Text: KMQJ 201815Z AUTO 25011G19KT 10SM BKN026 BKN032 16/08 A2986 RMK AO1
Loading
Personal Weather Stations






























Interactive Weather Map New forecast layout! Learn more

10-Day Weather Forecast

Advertisements
Track Severe Weather on mobile